Time;durP1;ratioP1;P1;durP2;ratioP2;P2;SDS_P1;SDS_P2;PMS_P1;PMS_P2;Temp;Humidity;BMP_temperature;BMP_pressure;BME280_temperature;BME280_humidity;BME280_pressure;Samples;Min_cycle;Max_cycle;Signal;HPM_P1;HPM_P2
2021/12/06 00:01:55;;;;;;;23.48;14.43;;;;;;;;;;5040215;28;20029;-85
2021/12/06 00:04:27;;;;;;;21.42;13.63;;;;;;;;;;5047572;28;20536;-84
2021/12/06 00:06:56;;;;;;;20.40;13.47;;;;;;;;;;5046526;28;20079;-86
2021/12/06 00:09:25;;;;;;;21.95;13.77;;;;;;;;;;5041016;28;20087;-85
2021/12/06 00:11:57;;;;;;;21.67;13.75;;;;;;;;;;5048790;28;20720;-82
2021/12/06 00:14:29;;;;;;;19.80;13.73;;;;;;;;;;5029595;28;20507;-86
2021/12/06 00:17:00;;;;;;;20.73;14.18;;;;;;;;;;5030679;28;20051;-86
2021/12/06 00:19:26;;;;;;;21.67;13.80;;;;;;;;;;5031243;28;20171;-86
2021/12/06 00:21:56;;;;;;;23.33;14.50;;;;;;;;;;5029383;28;20029;-84
2021/12/06 00:24:22;;;;;;;22.40;14.13;;;;;;;;;;5030591;28;20044;-82
2021/12/06 00:26:47;;;;;;;24.13;14.77;;;;;;;;;;5032134;28;20116;-82
2021/12/06 00:29:13;;;;;;;24.17;15.63;;;;;;;;;;5031946;28;20483;-81
2021/12/06 00:31:39;;;;;;;23.90;15.10;;;;;;;;;;5032870;28;20037;-85
2021/12/06 00:34:13;;;;;;;26.17;14.15;;;;;;;;;;5040243;28;20090;-85
2021/12/06 00:36:41;;;;;;;23.25;14.52;;;;;;;;;;5051651;28;20078;-86
2021/12/06 00:39:12;;;;;;;23.13;14.70;;;;;;;;;;5051067;28;20472;-85
2021/12/06 00:41:39;;;;;;;26.20;14.95;;;;;;;;;;5040594;28;20542;-84
2021/12/06 00:44:07;;;;;;;24.40;15.30;;;;;;;;;;5038659;28;20078;-84
2021/12/06 00:46:33;;;;;;;23.42;15.23;;;;;;;;;;5033671;28;20183;-83
2021/12/06 00:48:58;;;;;;;22.10;14.77;;;;;;;;;;5034941;28;20115;-82
2021/12/06 00:51:23;;;;;;;26.48;14.95;;;;;;;;;;5031227;28;20036;-85
2021/12/06 00:53:49;;;;;;;21.85;14.07;;;;;;;;;;5033668;28;20075;-83
2021/12/06 00:56:14;;;;;;;24.02;15.00;;;;;;;;;;5031574;28;20021;-85
2021/12/06 00:58:40;;;;;;;26.80;15.70;;;;;;;;;;5032396;28;20031;-85
2021/12/06 01:01:07;;;;;;;25.75;16.08;;;;;;;;;;5032283;28;20069;-82
2021/12/06 01:03:34;;;;;;;26.60;16.42;;;;;;;;;;5023622;28;20086;-84
2021/12/06 01:06:01;;;;;;;23.65;14.52;;;;;;;;;;5033392;28;20553;-85
2021/12/06 01:08:26;;;;;;;24.85;15.68;;;;;;;;;;5033583;28;20388;-83
2021/12/06 01:10:53;;;;;;;24.17;15.40;;;;;;;;;;5041183;28;20049;-86
2021/12/06 01:13:19;;;;;;;24.83;15.77;;;;;;;;;;5049121;28;20413;-85
2021/12/06 01:15:44;;;;;;;24.55;15.98;;;;;;;;;;5047420;28;20094;-84
2021/12/06 01:18:15;;;;;;;24.63;15.05;;;;;;;;;;5042547;28;20076;-82
2021/12/06 01:21:12;;;;;;;24.45;15.85;;;;;;;;;;5040668;28;20029;-82
2021/12/06 01:23:40;;;;;;;25.25;15.77;;;;;;;;;;5046226;28;20124;-86
2021/12/06 01:31:30;;;;;;;25.95;16.55;;;;;;;;;;5047134;28;20555;-85
2021/12/06 01:39:14;;;;;;;25.80;15.55;;;;;;;;;;5046664;28;20044;-82
2021/12/06 01:41:45;;;;;;;25.52;15.40;;;;;;;;;;5037326;28;20155;-82
2021/12/06 01:44:13;;;;;;;24.75;15.18;;;;;;;;;;5046656;28;20025;-85
2021/12/06 01:46:44;;;;;;;24.48;15.43;;;;;;;;;;5043914;28;20041;-85
2021/12/06 01:49:10;;;;;;;26.45;14.32;;;;;;;;;;5046794;28;20036;-85
2021/12/06 01:51:36;;;;;;;23.38;15.18;;;;;;;;;;5049501;28;20506;-82
2021/12/06 01:54:05;;;;;;;25.27;15.20;;;;;;;;;;5045545;28;20884;-82
2021/12/06 01:56:31;;;;;;;25.95;15.68;;;;;;;;;;5038505;28;20021;-86
2021/12/06 01:58:56;;;;;;;25.05;14.57;;;;;;;;;;5043858;28;20052;-85
2021/12/06 02:01:21;;;;;;;27.60;15.98;;;;;;;;;;5041725;28;20032;-84
2021/12/06 02:03:47;;;;;;;23.75;15.10;;;;;;;;;;5053215;28;20108;-84
2021/12/06 02:06:13;;;;;;;24.33;15.30;;;;;;;;;;5051841;28;20480;-85
2021/12/06 02:08:38;;;;;;;24.33;14.90;;;;;;;;;;5044426;28;20029;-85
2021/12/06 02:11:05;;;;;;;24.30;14.93;;;;;;;;;;5046735;28;20041;-82
2021/12/06 02:13:37;;;;;;;27.08;15.77;;;;;;;;;;5046782;28;20021;-85
2021/12/06 02:16:04;;;;;;;24.38;15.45;;;;;;;;;;5048048;28;20052;-86
2021/12/06 02:21:23;;;;;;;23.83;14.35;;;;;;;;;;5056173;28;20029;-83
2021/12/06 02:23:49;;;;;;;25.08;15.48;;;;;;;;;;5060944;28;20397;-85
2021/12/06 02:26:16;;;;;;;23.92;14.80;;;;;;;;;;5051441;28;20112;-84
2021/12/06 02:28:42;;;;;;;24.73;15.45;;;;;;;;;;5039551;28;20032;-85
2021/12/06 02:31:08;;;;;;;21.95;14.48;;;;;;;;;;5053139;28;20032;-84
2021/12/06 02:33:34;;;;;;;25.33;14.90;;;;;;;;;;5050861;28;20116;-85
2021/12/06 02:35:59;;;;;;;24.25;15.48;;;;;;;;;;5053159;28;20093;-85
2021/12/06 02:38:25;;;;;;;25.02;15.20;;;;;;;;;;5049751;28;20033;-86
2021/12/06 02:40:51;;;;;;;24.05;15.10;;;;;;;;;;5039094;28;20029;-84
2021/12/06 02:43:16;;;;;;;23.00;14.93;;;;;;;;;;5042124;28;20029;-86
2021/12/06 02:45:42;;;;;;;22.95;14.85;;;;;;;;;;5054461;28;20373;-82
2021/12/06 02:48:11;;;;;;;22.42;14.52;;;;;;;;;;5054541;28;20166;-86
2021/12/06 02:50:51;;;;;;;24.40;15.48;;;;;;;;;;5051110;28;20092;-85
2021/12/06 02:53:18;;;;;;;25.15;14.88;;;;;;;;;;5043184;28;20029;-85
2021/12/06 02:55:51;;;;;;;24.70;14.90;;;;;;;;;;5052547;28;20040;-85
2021/12/06 03:01:05;;;;;;;24.25;14.63;;;;;;;;;;5047558;28;20033;-84
2021/12/06 03:03:31;;;;;;;22.63;14.27;;;;;;;;;;5046907;28;20036;-86
2021/12/06 03:05:57;;;;;;;21.42;14.05;;;;;;;;;;5049930;28;20025;-82
2021/12/06 03:08:41;;;;;;;20.38;13.82;;;;;;;;;;5047198;28;20021;-85
2021/12/06 03:11:11;;;;;;;22.88;14.38;;;;;;;;;;5049142;28;20049;-82
2021/12/06 03:13:37;;;;;;;22.90;14.63;;;;;;;;;;5046869;28;20037;-86
2021/12/06 03:16:03;;;;;;;23.48;14.82;;;;;;;;;;5051660;28;20033;-85
2021/12/06 03:18:29;;;;;;;22.35;14.25;;;;;;;;;;5046519;28;20033;-84
2021/12/06 03:20:55;;;;;;;23.67;14.18;;;;;;;;;;5050893;28;20033;-85
2021/12/06 03:23:20;;;;;;;22.40;14.40;;;;;;;;;;5043935;28;20079;-86
2021/12/06 03:25:46;;;;;;;20.92;13.63;;;;;;;;;;5049606;28;20053;-85
2021/12/06 03:28:11;;;;;;;22.67;13.88;;;;;;;;;;5053010;28;20078;-85
2021/12/06 03:30:37;;;;;;;24.88;15.30;;;;;;;;;;5051201;28;20032;-83
2021/12/06 03:33:03;;;;;;;23.13;14.57;;;;;;;;;;5049142;28;20029;-84
2021/12/06 03:35:28;;;;;;;25.33;15.75;;;;;;;;;;5045072;28;20121;-84
2021/12/06 03:37:54;;;;;;;25.25;14.70;;;;;;;;;;5050040;28;20021;-82
2021/12/06 03:40:19;;;;;;;25.00;15.63;;;;;;;;;;5045019;28;20515;-82
2021/12/06 03:42:45;;;;;;;23.60;15.32;;;;;;;;;;5050410;28;20032;-82
2021/12/06 03:45:11;;;;;;;25.05;15.68;;;;;;;;;;5047332;28;20392;-83
2021/12/06 03:47:36;;;;;;;27.63;15.82;;;;;;;;;;5041957;28;20032;-82
2021/12/06 03:50:06;;;;;;;27.05;15.93;;;;;;;;;;5052186;28;20029;-85
2021/12/06 03:52:32;;;;;;;29.10;16.85;;;;;;;;;;5052444;28;20036;-84
2021/12/06 03:54:59;;;;;;;25.48;15.70;;;;;;;;;;5052133;28;20689;-85
2021/12/06 03:57:25;;;;;;;25.20;15.82;;;;;;;;;;5053201;28;20021;-82
2021/12/06 03:59:52;;;;;;;27.23;16.00;;;;;;;;;;5051494;28;20391;-84
2021/12/06 04:02:20;;;;;;;26.88;16.55;;;;;;;;;;5051757;28;20532;-85
2021/12/06 04:04:46;;;;;;;30.15;17.08;;;;;;;;;;5043085;28;20033;-82
2021/12/06 04:07:11;;;;;;;30.85;18.00;;;;;;;;;;5040769;28;20029;-85
2021/12/06 04:09:37;;;;;;;26.50;16.13;;;;;;;;;;5046900;28;20083;-85
2021/12/06 04:12:07;;;;;;;25.23;15.55;;;;;;;;;;5052526;28;20025;-85
2021/12/06 04:14:33;;;;;;;26.08;16.58;;;;;;;;;;5052262;28;20032;-85
2021/12/06 04:16:59;;;;;;;26.45;16.52;;;;;;;;;;5048838;28;20017;-86
2021/12/06 04:19:24;;;;;;;24.77;15.00;;;;;;;;;;5046542;28;20037;-82
2021/12/06 04:21:50;;;;;;;31.73;16.15;;;;;;;;;;5037409;28;20025;-82
2021/12/06 04:24:16;;;;;;;25.98;14.63;;;;;;;;;;5039738;28;20549;-85
2021/12/06 04:26:42;;;;;;;23.48;14.73;;;;;;;;;;5050967;28;20021;-84
2021/12/06 04:29:08;;;;;;;25.58;14.88;;;;;;;;;;5051658;28;20021;-82
2021/12/06 04:31:37;;;;;;;27.83;15.00;;;;;;;;;;5037940;28;20077;-83
2021/12/06 04:34:03;;;;;;;27.63;16.42;;;;;;;;;;5043610;28;20040;-85
2021/12/06 04:36:28;;;;;;;25.65;15.25;;;;;;;;;;5044390;28;20381;-86
2021/12/06 04:38:54;;;;;;;24.20;14.55;;;;;;;;;;5051907;28;20021;-84
2021/12/06 04:41:20;;;;;;;25.92;15.55;;;;;;;;;;5049941;28;20178;-86
2021/12/06 04:43:46;;;;;;;26.40;15.15;;;;;;;;;;5053243;28;20539;-85
2021/12/06 04:46:11;;;;;;;25.70;15.30;;;;;;;;;;5045622;28;20193;-84
2021/12/06 04:48:37;;;;;;;30.33;17.42;;;;;;;;;;5041436;28;20074;-82
2021/12/06 04:51:03;;;;;;;28.63;15.80;;;;;;;;;;5047385;28;20094;-86
2021/12/06 04:53:36;;;;;;;27.98;16.13;;;;;;;;;;5053863;28;20021;-82
2021/12/06 04:56:31;;;;;;;26.07;15.07;;;;;;;;;;5045566;28;20105;-85
2021/12/06 04:59:12;;;;;;;24.67;15.15;;;;;;;;;;5048989;28;20033;-85
2021/12/06 05:01:38;;;;;;;23.90;14.05;;;;;;;;;;5040679;28;20036;-84
2021/12/06 05:04:10;;;;;;;25.55;15.15;;;;;;;;;;5050825;28;20021;-86
2021/12/06 05:06:39;;;;;;;27.10;16.07;;;;;;;;;;5043653;28;20021;-84
2021/12/06 05:09:13;;;;;;;23.88;14.50;;;;;;;;;;5046292;28;20576;-85
2021/12/06 05:11:39;;;;;;;22.95;13.88;;;;;;;;;;5030021;28;20381;-82
2021/12/06 05:14:05;;;;;;;25.35;14.57;;;;;;;;;;5025814;28;20049;-85
2021/12/06 05:16:31;;;;;;;25.95;15.30;;;;;;;;;;5028610;28;20028;-86
2021/12/06 05:18:56;;;;;;;22.05;13.65;;;;;;;;;;5030289;28;20384;-84
2021/12/06 05:21:22;;;;;;;25.05;14.85;;;;;;;;;;5046758;28;20496;-85
2021/12/06 05:23:48;;;;;;;24.27;15.15;;;;;;;;;;5027037;28;20528;-85
2021/12/06 05:26:14;;;;;;;23.45;13.75;;;;;;;;;;5033294;28;20121;-82
2021/12/06 05:28:43;;;;;;;22.45;13.90;;;;;;;;;;5047319;28;20112;-85
2021/12/06 05:31:15;;;;;;;23.20;13.68;;;;;;;;;;5044638;28;20361;-82
2021/12/06 05:33:46;;;;;;;27.95;15.25;;;;;;;;;;5029907;28;20029;-83
2021/12/06 05:36:12;;;;;;;27.27;15.73;;;;;;;;;;5025044;28;20039;-84
2021/12/06 05:38:38;;;;;;;26.63;15.40;;;;;;;;;;5036966;28;20031;-84
2021/12/06 05:41:04;;;;;;;25.15;14.80;;;;;;;;;;5027306;28;20021;-85
2021/12/06 05:43:29;;;;;;;27.83;15.90;;;;;;;;;;5034387;28;20029;-82
2021/12/06 05:45:55;;;;;;;27.35;15.77;;;;;;;;;;5054556;28;20032;-84
2021/12/06 05:48:21;;;;;;;29.70;17.20;;;;;;;;;;5034777;28;20397;-85
2021/12/06 05:50:48;;;;;;;28.48;16.35;;;;;;;;;;5026498;28;20501;-82
2021/12/06 05:53:14;;;;;;;30.38;17.33;;;;;;;;;;5052344;28;21046;-85
2021/12/06 05:55:41;;;;;;;30.38;17.48;;;;;;;;;;5036756;28;20480;-85
2021/12/06 05:58:10;;;;;;;33.78;18.60;;;;;;;;;;5035030;28;20025;-85
2021/12/06 06:00:36;;;;;;;30.08;18.15;;;;;;;;;;5025417;28;20025;-83
2021/12/06 06:03:04;;;;;;;32.90;17.05;;;;;;;;;;5030989;28;20020;-82
2021/12/06 06:05:30;;;;;;;33.05;18.70;;;;;;;;;;5035730;28;20356;-82
2021/12/06 06:07:56;;;;;;;29.10;17.33;;;;;;;;;;5032287;28;20064;-82
2021/12/06 06:10:21;;;;;;;31.98;17.98;;;;;;;;;;5044614;28;20425;-83
2021/12/06 06:12:47;;;;;;;33.65;18.75;;;;;;;;;;5048694;28;20025;-85
2021/12/06 06:15:13;;;;;;;32.97;18.45;;;;;;;;;;5044705;28;20116;-82
2021/12/06 06:17:41;;;;;;;30.67;17.80;;;;;;;;;;5048944;28;20388;-85
2021/12/06 06:20:10;;;;;;;30.42;18.10;;;;;;;;;;5053897;28;20025;-82
2021/12/06 06:22:36;;;;;;;30.73;17.17;;;;;;;;;;5053270;28;20044;-85
2021/12/06 06:25:01;;;;;;;29.52;16.70;;;;;;;;;;5043281;28;20476;-82
2021/12/06 06:27:26;;;;;;;26.38;16.45;;;;;;;;;;5044989;28;20124;-83
2021/12/06 06:29:52;;;;;;;26.63;15.38;;;;;;;;;;5047252;28;20484;-83
2021/12/06 06:32:22;;;;;;;24.25;15.10;;;;;;;;;;5047936;28;20095;-83
2021/12/06 06:34:48;;;;;;;28.17;16.33;;;;;;;;;;5047644;28;20025;-82
2021/12/06 06:37:13;;;;;;;27.63;16.00;;;;;;;;;;5043828;28;20376;-86
2021/12/06 06:39:38;;;;;;;25.17;14.40;;;;;;;;;;5039431;28;20025;-84
2021/12/06 06:42:05;;;;;;;22.90;14.40;;;;;;;;;;5052290;28;20182;-84
2021/12/06 06:44:31;;;;;;;24.20;14.52;;;;;;;;;;5044969;28;20146;-86
2021/12/06 06:46:56;;;;;;;26.05;15.25;;;;;;;;;;5049800;28;20536;-85
2021/12/06 06:49:24;;;;;;;24.95;14.95;;;;;;;;;;5047519;28;20475;-83
2021/12/06 06:51:49;;;;;;;28.77;14.23;;;;;;;;;;5051034;28;20577;-83
2021/12/06 06:54:15;;;;;;;19.98;12.82;;;;;;;;;;5038530;28;20116;-85
2021/12/06 06:56:41;;;;;;;21.75;13.93;;;;;;;;;;5041912;28;20393;-82
2021/12/06 06:59:07;;;;;;;21.15;13.05;;;;;;;;;;5053149;28;20023;-83
2021/12/06 07:01:34;;;;;;;20.98;13.55;;;;;;;;;;5049147;28;20049;-85
2021/12/06 07:03:59;;;;;;;22.25;13.63;;;;;;;;;;5053820;28;20032;-85
2021/12/06 07:06:27;;;;;;;22.42;13.55;;;;;;;;;;5053317;28;20028;-85
2021/12/06 07:08:54;;;;;;;24.67;14.73;;;;;;;;;;5053651;28;20432;-85
2021/12/06 07:11:21;;;;;;;24.92;14.82;;;;;;;;;;5037425;28;20075;-83
2021/12/06 07:13:47;;;;;;;28.10;14.82;;;;;;;;;;5049332;28;20025;-82
2021/12/06 07:16:14;;;;;;;25.00;15.63;;;;;;;;;;5043189;28;20021;-86
2021/12/06 07:18:40;;;;;;;22.30;14.20;;;;;;;;;;5042321;28;20553;-82
2021/12/06 07:21:06;;;;;;;24.98;14.93;;;;;;;;;;5052623;28;20029;-85
2021/12/06 07:23:33;;;;;;;27.48;15.13;;;;;;;;;;5052902;28;20480;-85
2021/12/06 07:25:58;;;;;;;29.15;16.40;;;;;;;;;;5040289;28;20028;-85
2021/12/06 07:28:23;;;;;;;27.13;16.15;;;;;;;;;;5051548;28;20079;-86
2021/12/06 07:30:49;;;;;;;25.35;15.85;;;;;;;;;;5047012;28;20123;-86
2021/12/06 07:33:14;;;;;;;28.48;17.05;;;;;;;;;;5045678;28;20033;-85
2021/12/06 07:35:40;;;;;;;27.52;16.83;;;;;;;;;;5044361;28;20492;-84
2021/12/06 07:38:07;;;;;;;26.67;17.13;;;;;;;;;;5053019;28;20029;-83
2021/12/06 07:40:33;;;;;;;27.85;16.63;;;;;;;;;;5049253;28;20021;-85
2021/12/06 07:42:58;;;;;;;24.77;15.07;;;;;;;;;;5044493;28;20031;-83
2021/12/06 07:45:24;;;;;;;25.70;16.10;;;;;;;;;;5050889;28;20119;-86
2021/12/06 07:47:50;;;;;;;26.98;15.70;;;;;;;;;;5045876;28;20025;-87
2021/12/06 07:50:20;;;;;;;25.50;15.73;;;;;;;;;;5044287;28;20087;-86
2021/12/06 07:52:48;;;;;;;22.85;14.30;;;;;;;;;;5041290;28;20155;-84
2021/12/06 07:55:16;;;;;;;22.08;14.40;;;;;;;;;;5043940;28;20025;-84
2021/12/06 07:57:42;;;;;;;23.08;14.35;;;;;;;;;;5052410;28;20037;-82
2021/12/06 08:00:20;;;;;;;21.95;13.98;;;;;;;;;;5047895;28;20059;-83
2021/12/06 08:02:46;;;;;;;20.40;13.30;;;;;;;;;;5048254;28;20051;-87
2021/12/06 08:05:30;;;;;;;24.60;14.85;;;;;;;;;;5049433;28;20029;-86
2021/12/06 08:08:08;;;;;;;26.50;15.27;;;;;;;;;;5044467;28;20126;-82
2021/12/06 08:10:37;;;;;;;28.45;15.32;;;;;;;;;;5042675;28;20144;-86
2021/12/06 08:13:03;;;;;;;24.25;15.88;;;;;;;;;;5049446;28;20025;-85
2021/12/06 08:15:29;;;;;;;23.95;14.95;;;;;;;;;;5053902;28;20112;-86
2021/12/06 08:17:55;;;;;;;31.80;15.32;;;;;;;;;;5038657;28;20072;-87
2021/12/06 08:20:20;;;;;;;26.05;14.82;;;;;;;;;;5042224;28;20036;-81
2021/12/06 08:22:45;;;;;;;25.95;15.25;;;;;;;;;;5037383;28;20029;-86
2021/12/06 08:25:12;;;;;;;26.73;15.80;;;;;;;;;;5037417;28;20060;-83
2021/12/06 08:27:38;;;;;;;28.25;16.30;;;;;;;;;;5051782;28;20024;-86
2021/12/06 08:30:06;;;;;;;24.92;15.73;;;;;;;;;;5047692;28;20389;-83
2021/12/06 08:32:32;;;;;;;26.38;15.10;;;;;;;;;;5046576;28;20036;-85
2021/12/06 08:34:57;;;;;;;22.60;14.68;;;;;;;;;;5044428;28;20393;-85
2021/12/06 08:37:22;;;;;;;24.20;15.10;;;;;;;;;;5047497;28;20040;-86
2021/12/06 08:39:48;;;;;;;24.70;14.68;;;;;;;;;;5050961;28;20478;-86
2021/12/06 08:42:13;;;;;;;25.95;15.88;;;;;;;;;;5049095;28;20152;-87
2021/12/06 08:44:39;;;;;;;25.98;16.23;;;;;;;;;;5046776;28;20051;-83
2021/12/06 08:47:04;;;;;;;28.73;16.67;;;;;;;;;;5033315;28;20041;-86
2021/12/06 08:49:31;;;;;;;26.08;16.38;;;;;;;;;;5051862;28;20029;-82
2021/12/06 08:51:57;;;;;;;24.17;16.40;;;;;;;;;;5042341;28;20444;-85
2021/12/06 08:54:26;;;;;;;27.42;16.55;;;;;;;;;;5042482;28;20448;-85
2021/12/06 08:56:54;;;;;;;27.05;17.33;;;;;;;;;;5047303;28;20014;-82
2021/12/06 08:59:19;;;;;;;29.90;17.10;;;;;;;;;;5046372;28;20514;-86
2021/12/06 09:01:45;;;;;;;34.33;20.23;;;;;;;;;;5047415;28;20029;-81
2021/12/06 09:04:12;;;;;;;32.40;19.25;;;;;;;;;;5047732;28;20091;-82
2021/12/06 09:06:40;;;;;;;35.38;20.40;;;;;;;;;;5051316;28;20029;-86
2021/12/06 09:09:08;;;;;;;38.33;19.83;;;;;;;;;;5046067;28;20023;-86
2021/12/06 09:11:38;;;;;;;39.08;20.70;;;;;;;;;;5031702;28;20024;-84
2021/12/06 09:14:04;;;;;;;33.72;19.50;;;;;;;;;;5032730;28;20025;-83
2021/12/06 09:16:29;;;;;;;33.90;18.88;;;;;;;;;;5029799;28;20113;-83
2021/12/06 09:18:55;;;;;;;34.53;19.40;;;;;;;;;;5021956;28;20028;-87
2021/12/06 09:21:22;;;;;;;30.88;17.98;;;;;;;;;;5049354;28;20025;-82
2021/12/06 09:23:49;;;;;;;40.15;20.55;;;;;;;;;;5034492;28;20048;-86
2021/12/06 09:26:15;;;;;;;35.97;19.48;;;;;;;;;;5021465;28;20116;-86
2021/12/06 09:28:41;;;;;;;32.95;18.10;;;;;;;;;;5034386;28;20029;-81
2021/12/06 09:31:07;;;;;;;37.15;21.17;;;;;;;;;;5028019;28;20025;-82
2021/12/06 09:33:34;;;;;;;33.00;18.23;;;;;;;;;;5027269;28;20116;-82
2021/12/06 09:36:01;;;;;;;35.33;18.50;;;;;;;;;;5030542;28;20033;-84
2021/12/06 09:38:33;;;;;;;35.58;19.38;;;;;;;;;;5032389;28;20036;-83
2021/12/06 09:41:02;;;;;;;35.45;18.52;;;;;;;;;;5032199;28;20027;-83
2021/12/06 09:43:28;;;;;;;35.42;18.67;;;;;;;;;;5035702;28;20041;-85
2021/12/06 09:45:54;;;;;;;34.50;18.08;;;;;;;;;;5037098;28;20083;-83
2021/12/06 09:48:20;;;;;;;34.55;17.08;;;;;;;;;;5032202;28;20044;-83
2021/12/06 09:50:50;;;;;;;37.50;18.63;;;;;;;;;;5026486;28;20024;-86
2021/12/06 09:53:20;;;;;;;36.00;19.00;;;;;;;;;;5033464;28;20028;-85
2021/12/06 09:55:48;;;;;;;37.38;18.15;;;;;;;;;;5032064;28;20481;-81
2021/12/06 09:58:14;;;;;;;38.80;19.95;;;;;;;;;;5030097;28;20154;-81
2021/12/06 10:00:45;;;;;;;34.42;18.02;;;;;;;;;;5026944;28;20716;-86
2021/12/06 10:03:15;;;;;;;34.95;18.88;;;;;;;;;;5025538;28;20191;-86
2021/12/06 10:05:41;;;;;;;39.22;18.92;;;;;;;;;;5033119;28;20103;-85
2021/12/06 10:08:07;;;;;;;36.47;19.13;;;;;;;;;;5039293;28;20032;-81
2021/12/06 10:10:33;;;;;;;33.50;17.90;;;;;;;;;;5029952;28;20504;-85
2021/12/06 10:12:59;;;;;;;40.45;19.90;;;;;;;;;;5045454;28;20033;-83
2021/12/06 10:15:27;;;;;;;36.47;18.90;;;;;;;;;;5041554;28;20025;-87
2021/12/06 10:17:55;;;;;;;34.72;18.23;;;;;;;;;;5048588;28;20025;-86
2021/12/06 10:20:21;;;;;;;35.78;19.30;;;;;;;;;;5050643;28;20036;-86
2021/12/06 10:22:47;;;;;;;40.55;19.73;;;;;;;;;;5051113;28;20025;-83
2021/12/06 10:25:13;;;;;;;33.28;18.02;;;;;;;;;;5037135;28;20083;-85
2021/12/06 10:27:38;;;;;;;34.00;18.58;;;;;;;;;;5052516;28;20021;-86
2021/12/06 10:30:09;;;;;;;36.88;18.90;;;;;;;;;;5052537;28;20067;-84
2021/12/06 10:32:38;;;;;;;38.38;19.27;;;;;;;;;;5049881;28;20029;-86
2021/12/06 10:35:08;;;;;;;36.97;18.40;;;;;;;;;;5049848;28;20091;-84
2021/12/06 10:37:45;;;;;;;40.38;19.17;;;;;;;;;;5054154;28;20053;-82
2021/12/06 10:40:20;;;;;;;36.83;18.23;;;;;;;;;;5039325;28;20048;-86
2021/12/06 10:42:47;;;;;;;35.15;17.73;;;;;;;;;;5046266;28;20104;-84
2021/12/06 10:45:20;;;;;;;37.95;19.73;;;;;;;;;;5051977;28;20392;-84
2021/12/06 10:48:14;;;;;;;41.33;20.50;;;;;;;;;;5045164;28;20381;-85
2021/12/06 10:50:44;;;;;;;;;;;;;;;;;;5050301;28;20025;-82
2021/12/06 10:53:11;;;;;;;37.15;17.90;;;;;;;;;;5043388;28;19933;-82
2021/12/06 10:55:38;;;;;;;40.03;19.20;;;;;;;;;;5049930;28;20107;-84
2021/12/06 10:58:10;;;;;;;34.97;17.55;;;;;;;;;;5053558;28;20476;-83
2021/12/06 11:01:05;;;;;;;37.33;17.83;;;;;;;;;;5045382;28;20020;-81
2021/12/06 11:03:48;;;;;;;35.50;17.25;;;;;;;;;;5052591;28;20033;-83
2021/12/06 11:06:31;;;;;;;29.25;14.63;;;;;;;;;;5051720;28;20480;-81
2021/12/06 11:09:09;;;;;;;32.35;16.10;;;;;;;;;;5041166;28;20044;-86
2021/12/06 11:11:41;;;;;;;31.35;15.82;;;;;;;;;;5044821;28;20131;-85
2021/12/06 11:14:21;;;;;;;30.10;14.93;;;;;;;;;;5046373;28;20033;-85
2021/12/06 11:16:51;;;;;;;31.40;15.02;;;;;;;;;;5046626;28;20033;-86
2021/12/06 11:19:18;;;;;;;33.53;15.40;;;;;;;;;;5051934;28;20103;-86
2021/12/06 11:21:55;;;;;;;30.90;14.88;;;;;;;;;;5045264;28;20476;-86
2021/12/06 11:24:31;;;;;;;32.70;17.08;;;;;;;;;;5042099;28;20032;-81
2021/12/06 11:27:03;;;;;;;34.53;16.00;;;;;;;;;;5053084;28;20025;-81
2021/12/06 11:29:44;;;;;;;36.38;16.63;;;;;;;;;;5051750;28;20111;-86
2021/12/06 11:32:20;;;;;;;32.50;14.57;;;;;;;;;;5045747;28;20029;-86
2021/12/06 11:35:06;;;;;;;34.92;15.75;;;;;;;;;;5052277;28;20055;-85
2021/12/06 11:37:40;;;;;;;37.17;15.70;;;;;;;;;;5051676;28;20032;-83
2021/12/06 11:40:22;;;;;;;41.08;16.92;;;;;;;;;;5047802;28;20029;-85
2021/12/06 11:43:00;;;;;;;38.05;16.67;;;;;;;;;;5054503;28;20032;-83
2021/12/06 11:45:48;;;;;;;39.60;16.05;;;;;;;;;;5049397;28;20029;-81
2021/12/06 11:48:27;;;;;;;50.45;17.95;;;;;;;;;;5049082;28;20049;-85
2021/12/06 11:51:08;;;;;;;50.50;19.33;;;;;;;;;;5050468;28;20053;-85
2021/12/06 11:53:35;;;;;;;45.78;16.63;;;;;;;;;;5049917;28;20021;-83
2021/12/06 11:56:28;;;;;;;48.25;17.38;;;;;;;;;;5050555;28;20476;-86
2021/12/06 11:58:59;;;;;;;48.97;18.38;;;;;;;;;;5041639;28;20541;-81
2021/12/06 12:01:37;;;;;;;47.30;17.75;;;;;;;;;;5049759;28;20080;-85
2021/12/06 12:04:08;;;;;;;44.72;16.35;;;;;;;;;;5046379;28;20146;-86
2021/12/06 12:06:44;;;;;;;46.53;17.17;;;;;;;;;;5041581;28;20025;-81
2021/12/06 12:09:30;;;;;;;39.05;16.15;;;;;;;;;;5045038;28;20123;-82
2021/12/06 12:12:05;;;;;;;36.97;14.90;;;;;;;;;;5038082;28;20072;-85
2021/12/06 12:14:37;;;;;;;35.85;14.60;;;;;;;;;;5044886;28;20044;-86
2021/12/06 12:17:08;;;;;;;36.63;15.07;;;;;;;;;;5047897;28;20021;-85
2021/12/06 12:19:34;;;;;;;32.20;13.88;;;;;;;;;;5039513;28;20025;-85
2021/12/06 12:21:59;;;;;;;35.40;13.98;;;;;;;;;;5046976;28;20485;-85
2021/12/06 12:24:25;;;;;;;31.00;13.05;;;;;;;;;;5046695;28;20024;-85
2021/12/06 12:26:57;;;;;;;33.92;14.43;;;;;;;;;;5051155;28;20083;-83
2021/12/06 12:29:27;;;;;;;31.10;14.02;;;;;;;;;;5046776;28;20013;-82
2021/12/06 12:31:56;;;;;;;28.13;13.05;;;;;;;;;;5045123;28;20033;-85
2021/12/06 12:34:25;;;;;;;26.33;12.13;;;;;;;;;;5051743;28;20017;-81
2021/12/06 12:36:50;;;;;;;25.40;12.95;;;;;;;;;;5047089;28;20025;-86
2021/12/06 12:39:18;;;;;;;22.33;11.25;;;;;;;;;;5043456;28;20074;-81
2021/12/06 12:41:58;;;;;;;21.52;10.85;;;;;;;;;;5040940;28;20025;-85
2021/12/06 12:44:41;;;;;;;24.02;11.32;;;;;;;;;;5049306;28;20029;-83
2021/12/06 12:47:16;;;;;;;22.93;10.63;;;;;;;;;;5066739;28;20500;-86
2021/12/06 12:49:51;;;;;;;19.38;10.55;;;;;;;;;;5036933;28;20301;-81
2021/12/06 12:52:47;;;;;;;22.48;11.20;;;;;;;;;;5045847;28;20056;-83
2021/12/06 12:55:29;;;;;;;20.73;10.32;;;;;;;;;;5037688;28;20041;-84
2021/12/06 12:58:25;;;;;;;21.73;10.55;;;;;;;;;;5044513;28;20100;-84
2021/12/06 13:01:01;;;;;;;22.30;10.90;;;;;;;;;;5042629;28;20515;-81
2021/12/06 13:03:40;;;;;;;20.70;10.50;;;;;;;;;;5047590;28;20171;-85
2021/12/06 13:06:25;;;;;;;20.85;11.05;;;;;;;;;;5050581;28;20543;-81
2021/12/06 13:08:57;;;;;;;20.60;10.70;;;;;;;;;;5041777;28;20029;-83
2021/12/06 13:11:27;;;;;;;19.58;10.23;;;;;;;;;;5050453;28;20049;-84
2021/12/06 13:13:55;;;;;;;20.05;11.02;;;;;;;;;;5049511;28;20032;-81
2021/12/06 13:16:35;;;;;;;20.27;10.48;;;;;;;;;;5048904;28;20423;-86
2021/12/06 13:19:12;;;;;;;19.45;10.27;;;;;;;;;;5048207;28;20474;-86
2021/12/06 13:21:56;;;;;;;21.40;10.50;;;;;;;;;;5046180;28;20032;-84
2021/12/06 13:24:44;;;;;;;19.58;9.52;;;;;;;;;;5036978;28;20062;-85
2021/12/06 13:27:18;;;;;;;20.30;10.48;;;;;;;;;;5043590;28;20957;-84
2021/12/06 13:30:05;;;;;;;19.80;11.07;;;;;;;;;;5042789;28;20060;-83
2021/12/06 13:32:47;;;;;;;19.42;10.43;;;;;;;;;;5043142;28;20060;-84
2021/12/06 13:35:46;;;;;;;19.27;10.52;;;;;;;;;;5038601;28;20599;-84
2021/12/06 13:38:21;;;;;;;22.00;11.13;;;;;;;;;;5042308;28;20052;-86
2021/12/06 13:40:55;;;;;;;21.08;11.50;;;;;;;;;;5031801;28;20029;-86
2021/12/06 13:43:26;;;;;;;21.77;11.15;;;;;;;;;;5044401;28;20040;-82
2021/12/06 13:45:55;;;;;;;19.95;11.32;;;;;;;;;;5044457;28;20044;-85
2021/12/06 13:48:25;;;;;;;19.70;10.88;;;;;;;;;;5043693;28;20068;-83
2021/12/06 13:50:53;;;;;;;20.42;11.00;;;;;;;;;;5043052;28;20036;-85
2021/12/06 13:53:25;;;;;;;25.27;11.57;;;;;;;;;;5033081;28;20550;-86
2021/12/06 13:55:52;;;;;;;21.45;11.88;;;;;;;;;;5043223;28;20072;-84
2021/12/06 13:58:19;;;;;;;20.90;11.25;;;;;;;;;;5031847;28;20028;-85
2021/12/06 14:00:46;;;;;;;20.75;10.93;;;;;;;;;;5035664;28;20040;-85
2021/12/06 14:03:19;;;;;;;23.77;12.80;;;;;;;;;;5038702;28;20025;-84
2021/12/06 14:05:51;;;;;;;24.58;12.50;;;;;;;;;;5035014;28;20037;-84
2021/12/06 14:08:18;;;;;;;25.42;12.90;;;;;;;;;;5034174;28;20037;-82
2021/12/06 14:10:43;;;;;;;24.90;12.00;;;;;;;;;;5035761;28;20538;-85
2021/12/06 14:13:09;;;;;;;24.05;12.57;;;;;;;;;;5039899;28;20033;-85
2021/12/06 14:15:46;;;;;;;23.33;11.88;;;;;;;;;;5045776;28;20059;-82
2021/12/06 14:18:17;;;;;;;23.42;11.85;;;;;;;;;;5039284;28;20032;-85
2021/12/06 14:20:55;;;;;;;24.98;12.80;;;;;;;;;;5038843;28;20025;-85
2021/12/06 14:23:26;;;;;;;25.88;12.27;;;;;;;;;;5040168;28;20045;-85
2021/12/06 14:25:56;;;;;;;27.25;12.88;;;;;;;;;;5038270;28;20028;-85
2021/12/06 14:28:23;;;;;;;27.20;13.18;;;;;;;;;;5037548;28;20515;-85
2021/12/06 14:30:50;;;;;;;29.15;15.00;;;;;;;;;;5040435;28;20043;-82
2021/12/06 14:33:17;;;;;;;26.48;14.32;;;;;;;;;;5040147;28;20021;-85
2021/12/06 14:35:44;;;;;;;28.02;14.43;;;;;;;;;;5035312;28;20040;-84
2021/12/06 14:38:11;;;;;;;34.72;15.88;;;;;;;;;;5042884;28;20075;-83
2021/12/06 14:40:38;;;;;;;29.92;15.30;;;;;;;;;;5047128;28;20104;-85
2021/12/06 14:43:12;;;;;;;31.17;14.55;;;;;;;;;;5038728;28;20139;-84
2021/12/06 14:45:38;;;;;;;33.47;14.77;;;;;;;;;;5042518;28;20029;-82
2021/12/06 14:48:09;;;;;;;28.70;13.90;;;;;;;;;;5041294;28;20032;-84